PWSweather.com
Personal Weather Stations
Station Observations
SHAHALMS1
Eftra, Falkenberg, HA

EftraFalkenberg, HA

Lat: 56.85, Lon: 12.65

Elevation: 140

Station Type:

http://hem.passagen.se/risarp101

High Low Average
Temperature 53.2°F11.8°C 40.1°F4.5°C 49.0°F9.4°C
Dew Point 48.5°F9.2°C 33.5°F0.8°C 40.9°F4.9°C
Winds 16.2 mph 26.1 kmh Calm Calm 8.0 mph WSW12.9 kmh WSW
Wind Gusts 41.2 mph66.3 kmh -- 18.0 mph29.0 kmh
Humidity 91% 62% 74%
Pressure 29.36 in994.2 mb 29.18 in988.1 mb -
Precipitation 0.09 in2.3 mm - -
Hour Temp Dew Point Humidity Winds Wind Gusts Pressure Precip Precip Rate Daily Precip Total
12:00 AM 49.5°F9.7°C 44.5°F6.9°C 83% 6.3 mph W10.1 kmh W 12.5 mph20.1 kmh 29.36 in994.2 mb 0.00 in0.0 mm 0.00 in0.0 mm 0.00 in0.0 mm
12:15 AM 49.8°F9.9°C 45.5°F7.5°C 85% 7.0 mph W11.3 kmh W 16.1 mph25.9 kmh 29.36 in994.2 mb 0.00 in0.0 mm 0.00 in0.0 mm 0.00 in0.0 mm
12:30 AM 50.2°F10.1°C 46.5°F8.1°C 87% 7.6 mph W12.2 kmh W 17.9 mph28.8 kmh 29.33 in993.2 mb 0.00 in0.0 mm 0.00 in0.0 mm 0.00 in0.0 mm
12:45 AM 50.4°F10.2°C 46.6°F8.1°C 87% 6.7 mph W10.8 kmh W 16.1 mph25.9 kmh 29.33 in993.2 mb 0.00 in0.0 mm 0.00 in0.0 mm 0.00 in0.0 mm
01:00 AM 50.7°F10.4°C 47.6°F8.7°C 89% 7.6 mph W12.2 kmh W 20.0 mph32.2 kmh 29.33 in993.2 mb 0.05 in1.3 mm 0.07 in1.8 mm 0.05 in1.3 mm
01:15 AM 50.9°F10.5°C 48.1°F8.9°C 90% 9.0 mph WNW14.5 kmh WNW 20.8 mph33.5 kmh 29.30 in992.2 mb 0.05 in1.3 mm 0.00 in0.0 mm 0.05 in1.3 mm
01:30 AM 50.9°F10.5°C 48.1°F8.9°C 90% 10.0 mph W16.1 kmh W 24.7 mph39.8 kmh 29.30 in992.2 mb 0.05 in1.3 mm 0.00 in0.0 mm 0.05 in1.3 mm
01:45 AM 50.7°F10.4°C 47.9°F8.8°C 90% 8.7 mph WNW14.0 kmh WNW 20.8 mph33.5 kmh 29.27 in991.2 mb 0.05 in1.3 mm 0.00 in0.0 mm 0.05 in1.3 mm
02:00 AM 50.7°F10.4°C 48.2°F9.0°C 91% 9.6 mph W15.4 kmh W 26.8 mph43.1 kmh 29.24 in990.2 mb 0.05 in1.3 mm 0.00 in0.0 mm 0.09 in2.3 mm
02:15 AM 50.7°F10.4°C 48.2°F9.0°C 91% 9.1 mph WNW14.6 kmh WNW 20.8 mph33.5 kmh 29.27 in991.2 mb 0.05 in1.3 mm 0.00 in0.0 mm 0.09 in2.3 mm
02:30 AM 50.7°F10.4°C 48.2°F9.0°C 91% 11.1 mph W17.9 kmh W 21.8 mph35.1 kmh 29.30 in992.2 mb 0.05 in1.3 mm 0.00 in0.0 mm 0.09 in2.3 mm
02:45 AM 51.1°F10.6°C 48.5°F9.2°C 91% 12.7 mph WNW20.4 kmh WNW 31.5 mph50.7 kmh 29.27 in991.2 mb 0.05 in1.3 mm 0.00 in0.0 mm 0.09 in2.3 mm
03:00 AM 51.1°F10.6°C 48.2°F9.0°C 90% 8.8 mph W14.2 kmh W 21.1 mph34.0 kmh 29.24 in990.2 mb 0.00 in0.0 mm 0.00 in0.0 mm 0.09 in2.3 mm
03:15 AM 51.1°F10.6°C 48.0°F8.9°C 89% 11.2 mph WNW18.0 kmh WNW 32.2 mph51.8 kmh 29.24 in990.2 mb 0.00 in0.0 mm 0.00 in0.0 mm 0.09 in2.3 mm
03:30 AM 51.3°F10.7°C 47.8°F8.8°C 88% 12.5 mph WNW20.1 kmh WNW 33.6 mph54.1 kmh 29.24 in990.2 mb 0.00 in0.0 mm 0.00 in0.0 mm 0.09 in2.3 mm
03:45 AM 51.3°F10.7°C 47.5°F8.6°C 87% 11.6 mph WNW18.7 kmh WNW 30.1 mph48.4 kmh 29.24 in990.2 mb 0.00 in0.0 mm 0.00 in0.0 mm 0.09 in2.3 mm
04:00 AM 51.3°F10.7°C 46.9°F8.3°C 85% 11.5 mph W18.5 kmh W 24.7 mph39.8 kmh 29.21 in989.2 mb 0.00 in0.0 mm 0.00 in0.0 mm 0.09 in2.3 mm
04:15 AM 51.1°F10.6°C 45.8°F7.7°C 82% 13.1 mph WNW21.1 kmh WNW 41.2 mph66.3 kmh 29.21 in989.2 mb 0.00 in0.0 mm 0.00 in0.0 mm 0.09 in2.3 mm
04:30 AM 50.9°F10.5°C 44.9°F7.2°C 80% 11.7 mph W18.8 kmh W 31.5 mph50.7 kmh 29.18 in988.1 mb 0.00 in0.0 mm 0.00 in0.0 mm 0.09 in2.3 mm
04:45 AM 50.7°F10.4°C 44.1°F6.7°C 78% 11.5 mph W18.5 kmh W 28.6 mph46.0 kmh 29.21 in989.2 mb 0.00 in0.0 mm 0.00 in0.0 mm 0.09 in2.3 mm
05:00 AM 50.4°F10.2°C 43.8°F6.6°C 78% 10.0 mph W16.1 kmh W 23.3 mph37.5 kmh 29.18 in988.1 mb 0.00 in0.0 mm 0.00 in0.0 mm 0.09 in2.3 mm
05:15 AM 50.4°F10.2°C 43.8°F6.6°C 78% 11.1 mph WNW17.9 kmh WNW 27.6 mph44.4 kmh 29.21 in989.2 mb 0.00 in0.0 mm 0.00 in0.0 mm 0.09 in2.3 mm
05:30 AM 50.2°F10.1°C 43.2°F6.2°C 77% 10.1 mph WNW16.3 kmh WNW 24.7 mph39.8 kmh 29.24 in990.2 mb 0.00 in0.0 mm 0.00 in0.0 mm 0.09 in2.3 mm
05:46 AM 49.8°F9.9°C 42.9°F6.1°C 77% 9.6 mph WNW15.4 kmh WNW 19.0 mph30.6 kmh 29.21 in989.2 mb 0.00 in0.0 mm 0.00 in0.0 mm 0.09 in2.3 mm
06:00 AM 49.6°F9.8°C 42.7°F5.9°C 77% 8.7 mph WNW14.0 kmh WNW 26.8 mph43.1 kmh 29.21 in989.2 mb 0.00 in0.0 mm 0.00 in0.0 mm 0.09 in2.3 mm
06:15 AM 49.6°F9.8°C 42.7°F5.9°C 77% 9.4 mph NW15.1 kmh NW 20.0 mph32.2 kmh 29.21 in989.2 mb 0.00 in0.0 mm 0.00 in0.0 mm 0.09 in2.3 mm
06:30 AM 49.6°F9.8°C 42.7°F5.9°C 77% 7.9 mph WNW12.7 kmh WNW 16.5 mph26.6 kmh 29.21 in989.2 mb 0.00 in0.0 mm 0.00 in0.0 mm 0.09 in2.3 mm
06:45 AM 49.8°F9.9°C 42.9°F6.1°C 77% 9.4 mph NW15.1 kmh NW 19.0 mph30.6 kmh 29.21 in989.2 mb 0.00 in0.0 mm 0.00 in0.0 mm 0.09 in2.3 mm
07:00 AM 49.6°F9.8°C 42.4°F5.8°C 76% 8.7 mph NW14.0 kmh NW 17.2 mph27.7 kmh 29.21 in989.2 mb 0.00 in0.0 mm 0.00 in0.0 mm 0.09 in2.3 mm
07:15 AM 49.6°F9.8°C 42.0°F5.6°C 75% 9.0 mph NW14.5 kmh NW 17.2 mph27.7 kmh 29.21 in989.2 mb 0.00 in0.0 mm 0.00 in0.0 mm 0.09 in2.3 mm
07:30 AM 49.5°F9.7°C 41.5°F5.3°C 74% 8.6 mph WNW13.8 kmh WNW 16.1 mph25.9 kmh 29.21 in989.2 mb 0.00 in0.0 mm 0.00 in0.0 mm 0.09 in2.3 mm
07:45 AM 49.6°F9.8°C 41.3°F5.2°C 73% 9.5 mph NW15.3 kmh NW 20.4 mph32.8 kmh 29.21 in989.2 mb 0.00 in0.0 mm 0.00 in0.0 mm 0.09 in2.3 mm
08:00 AM 49.8°F9.9°C 40.8°F4.9°C 71% 11.0 mph NW17.7 kmh NW 20.8 mph33.5 kmh 29.21 in989.2 mb 0.00 in0.0 mm 0.00 in0.0 mm 0.09 in2.3 mm
08:15 AM 50.2°F10.1°C 40.4°F4.7°C 69% 14.7 mph NW23.7 kmh NW 27.6 mph44.4 kmh 29.21 in989.2 mb 0.00 in0.0 mm 0.00 in0.0 mm 0.09 in2.3 mm
08:30 AM 50.4°F10.2°C 40.2°F4.6°C 68% 13.5 mph NW21.7 kmh NW 30.4 mph48.9 kmh 29.21 in989.2 mb 0.00 in0.0 mm 0.00 in0.0 mm 0.09 in2.3 mm
08:45 AM 50.4°F10.2°C 40.2°F4.6°C 68% 11.7 mph WNW18.8 kmh WNW 27.6 mph44.4 kmh 29.21 in989.2 mb 0.00 in0.0 mm 0.00 in0.0 mm 0.09 in2.3 mm
09:00 AM 50.5°F10.3°C 40.4°F4.7°C 68% 10.5 mph NW16.9 kmh NW 21.8 mph35.1 kmh 29.18 in988.1 mb 0.00 in0.0 mm 0.00 in0.0 mm 0.09 in2.3 mm
09:15 AM 50.7°F10.4°C 40.5°F4.7°C 68% 10.0 mph NW16.1 kmh NW 23.3 mph37.5 kmh 29.21 in989.2 mb 0.00 in0.0 mm 0.00 in0.0 mm 0.09 in2.3 mm
09:30 AM 50.9°F10.5°C 40.3°F4.6°C 67% 11.7 mph NW18.8 kmh NW 23.6 mph38.0 kmh 29.21 in989.2 mb 0.00 in0.0 mm 0.00 in0.0 mm 0.09 in2.3 mm
09:45 AM 51.1°F10.6°C 40.5°F4.7°C 67% 11.8 mph NW19.0 kmh NW 37.2 mph59.9 kmh 29.21 in989.2 mb 0.00 in0.0 mm 0.00 in0.0 mm 0.09 in2.3 mm
10:00 AM 51.3°F10.7°C 40.3°F4.6°C 66% 11.5 mph NW18.5 kmh NW 24.3 mph39.1 kmh 29.24 in990.2 mb 0.00 in0.0 mm 0.00 in0.0 mm 0.09 in2.3 mm
10:15 AM 51.4°F10.8°C 40.5°F4.7°C 66% 9.6 mph NW15.4 kmh NW 20.0 mph32.2 kmh 29.24 in990.2 mb 0.00 in0.0 mm 0.00 in0.0 mm 0.09 in2.3 mm
10:30 AM 51.8°F11.0°C 40.4°F4.7°C 65% 11.8 mph WNW19.0 kmh WNW 27.9 mph44.9 kmh 29.24 in990.2 mb 0.00 in0.0 mm 0.00 in0.0 mm 0.09 in2.3 mm
10:45 AM 52.0°F11.1°C 40.2°F4.6°C 64% 10.7 mph NW17.2 kmh NW 21.5 mph34.6 kmh 29.24 in990.2 mb 0.00 in0.0 mm 0.00 in0.0 mm 0.09 in2.3 mm
11:00 AM 52.0°F11.1°C 40.6°F4.8°C 65% 11.1 mph NW17.9 kmh NW 20.8 mph33.5 kmh 29.24 in990.2 mb 0.00 in0.0 mm 0.00 in0.0 mm 0.09 in2.3 mm
11:15 AM 52.0°F11.1°C 40.6°F4.8°C 65% 12.6 mph NW20.3 kmh NW 32.6 mph52.5 kmh 29.24 in990.2 mb 0.00 in0.0 mm 0.00 in0.0 mm 0.09 in2.3 mm
11:30 AM 52.3°F11.3°C 40.9°F4.9°C 65% 13.4 mph NW21.6 kmh NW 27.9 mph44.9 kmh 29.27 in991.2 mb 0.00 in0.0 mm 0.00 in0.0 mm 0.09 in2.3 mm
11:45 AM 52.2°F11.2°C 40.3°F4.6°C 64% 15.1 mph NW24.3 kmh NW 27.2 mph43.8 kmh 29.27 in991.2 mb 0.00 in0.0 mm 0.00 in0.0 mm 0.09 in2.3 mm
12:00 PM 52.5°F11.4°C 40.7°F4.8°C 64% 13.5 mph NW21.7 kmh NW 35.4 mph57.0 kmh 29.27 in991.2 mb 0.00 in0.0 mm 0.00 in0.0 mm 0.09 in2.3 mm
12:15 PM 52.7°F11.5°C 40.5°F4.7°C 63% 14.6 mph NW23.5 kmh NW 27.9 mph44.9 kmh 29.27 in991.2 mb 0.00 in0.0 mm 0.00 in0.0 mm 0.09 in2.3 mm
12:30 PM 52.7°F11.5°C 40.5°F4.7°C 63% 12.7 mph NW20.4 kmh NW 27.9 mph44.9 kmh 29.27 in991.2 mb 0.00 in0.0 mm 0.00 in0.0 mm 0.09 in2.3 mm
12:45 PM 52.9°F11.6°C 41.0°F5.0°C 64% 10.9 mph NW17.5 kmh NW 24.7 mph39.8 kmh 29.27 in991.2 mb 0.00 in0.0 mm 0.00 in0.0 mm 0.09 in2.3 mm
01:00 PM 53.1°F11.7°C 40.8°F4.9°C 63% 10.8 mph NW17.4 kmh NW 23.3 mph37.5 kmh 29.27 in991.2 mb 0.00 in0.0 mm 0.00 in0.0 mm 0.09 in2.3 mm
01:15 PM 53.1°F11.7°C 40.8°F4.9°C 63% 12.0 mph NW19.3 kmh NW 20.4 mph32.8 kmh 29.27 in991.2 mb 0.00 in0.0 mm 0.00 in0.0 mm 0.09 in2.3 mm
01:30 PM 53.2°F11.8°C 41.0°F5.0°C 63% 9.4 mph NW15.1 kmh NW 16.5 mph26.6 kmh 29.30 in992.2 mb 0.00 in0.0 mm 0.00 in0.0 mm 0.09 in2.3 mm
01:46 PM 52.5°F11.4°C 39.9°F4.4°C 62% 12.0 mph NW19.3 kmh NW 24.7 mph39.8 kmh 29.27 in991.2 mb 0.00 in0.0 mm 0.00 in0.0 mm 0.09 in2.3 mm
02:00 PM 52.5°F11.4°C 40.3°F4.6°C 63% 13.9 mph NW22.4 kmh NW 30.8 mph49.6 kmh 29.27 in991.2 mb 0.00 in0.0 mm 0.00 in0.0 mm 0.09 in2.3 mm
02:15 PM 52.7°F11.5°C 40.0°F4.4°C 62% 13.5 mph NW21.7 kmh NW 25.8 mph41.5 kmh 29.27 in991.2 mb 0.00 in0.0 mm 0.00 in0.0 mm 0.09 in2.3 mm
02:30 PM 52.7°F11.5°C 40.0°F4.4°C 62% 16.2 mph NW26.1 kmh NW 30.8 mph49.6 kmh 29.27 in991.2 mb 0.00 in0.0 mm 0.00 in0.0 mm 0.09 in2.3 mm
02:45 PM 52.3°F11.3°C 39.7°F4.3°C 62% 12.1 mph NW19.5 kmh NW 26.5 mph42.6 kmh 29.27 in991.2 mb 0.00 in0.0 mm 0.00 in0.0 mm 0.09 in2.3 mm
03:00 PM 52.2°F11.2°C 39.9°F4.4°C 63% 11.3 mph NW18.2 kmh NW 21.1 mph34.0 kmh 29.30 in992.2 mb 0.00 in0.0 mm 0.00 in0.0 mm 0.09 in2.3 mm
03:15 PM 51.8°F11.0°C 39.6°F4.2°C 63% 11.4 mph NW18.3 kmh NW 21.8 mph35.1 kmh 29.27 in991.2 mb 0.00 in0.0 mm 0.00 in0.0 mm 0.09 in2.3 mm
03:30 PM 51.8°F11.0°C 39.6°F4.2°C 63% 9.9 mph NW15.9 kmh NW 19.3 mph31.1 kmh 29.24 in990.2 mb 0.00 in0.0 mm 0.00 in0.0 mm 0.09 in2.3 mm
03:45 PM 51.4°F10.8°C 39.7°F4.3°C 64% 9.5 mph NW15.3 kmh NW 15.7 mph25.3 kmh 29.24 in990.2 mb 0.00 in0.0 mm 0.00 in0.0 mm 0.09 in2.3 mm
04:00 PM 51.3°F10.7°C 39.5°F4.2°C 64% 10.2 mph NW16.4 kmh NW 17.2 mph27.7 kmh 29.24 in990.2 mb 0.00 in0.0 mm 0.00 in0.0 mm 0.09 in2.3 mm
04:15 PM 50.9°F10.5°C 39.5°F4.2°C 65% 9.2 mph NW14.8 kmh NW 16.1 mph25.9 kmh 29.27 in991.2 mb 0.00 in0.0 mm 0.00 in0.0 mm 0.09 in2.3 mm
04:30 PM 50.4°F10.2°C 39.0°F3.9°C 65% 7.2 mph WNW11.6 kmh WNW 14.0 mph22.5 kmh 29.27 in991.2 mb 0.00 in0.0 mm 0.00 in0.0 mm 0.09 in2.3 mm
04:45 PM 50.0°F10.0°C 39.1°F3.9°C 66% 6.4 mph WNW10.3 kmh WNW 12.2 mph19.6 kmh 29.27 in991.2 mb 0.00 in0.0 mm 0.00 in0.0 mm 0.09 in2.3 mm
05:00 PM 49.6°F9.8°C 39.1°F3.9°C 67% 5.6 mph WNW9.0 kmh WNW 11.5 mph18.5 kmh 29.27 in991.2 mb 0.00 in0.0 mm 0.00 in0.0 mm 0.09 in2.3 mm
05:15 PM 49.5°F9.7°C 39.3°F4.1°C 68% 5.7 mph WNW9.2 kmh WNW 12.2 mph19.6 kmh 29.27 in991.2 mb 0.00 in0.0 mm 0.00 in0.0 mm 0.09 in2.3 mm
05:30 PM 49.1°F9.5°C 39.0°F3.9°C 68% 4.9 mph WNW7.9 kmh WNW 11.8 mph19.0 kmh 29.30 in992.2 mb 0.00 in0.0 mm 0.00 in0.0 mm 0.09 in2.3 mm
05:45 PM 48.7°F9.3°C 38.6°F3.7°C 68% 3.2 mph WNW5.1 kmh WNW 9.3 mph15.0 kmh 29.30 in992.2 mb 0.00 in0.0 mm 0.00 in0.0 mm 0.09 in2.3 mm
06:00 PM 48.6°F9.2°C 38.8°F3.8°C 69% 3.6 mph NW5.8 kmh NW 8.9 mph14.3 kmh 29.30 in992.2 mb 0.00 in0.0 mm 0.00 in0.0 mm 0.09 in2.3 mm
06:15 PM 47.7°F8.7°C 38.0°F3.3°C 69% 2.0 mph W3.2 kmh W 6.8 mph10.9 kmh 29.30 in992.2 mb 0.00 in0.0 mm 0.00 in0.0 mm 0.09 in2.3 mm
06:30 PM 47.3°F8.5°C 38.4°F3.6°C 71% 2.8 mph W4.5 kmh W 8.6 mph13.8 kmh 29.30 in992.2 mb 0.00 in0.0 mm 0.00 in0.0 mm 0.09 in2.3 mm
06:45 PM 46.9°F8.3°C 38.4°F3.6°C 72% 1.4 mph W2.3 kmh W 7.9 mph12.7 kmh 29.33 in993.2 mb 0.00 in0.0 mm 0.00 in0.0 mm 0.09 in2.3 mm
07:00 PM 46.8°F8.2°C 38.6°F3.7°C 73% 0.1 mph W0.2 kmh W 2.1 mph3.4 kmh 29.33 in993.2 mb 0.00 in0.0 mm 0.00 in0.0 mm 0.09 in2.3 mm
07:15 PM 46.8°F8.2°C 38.9°F3.8°C 74% Calm Calm 2.5 mph4.0 kmh 29.33 in993.2 mb 0.00 in0.0 mm 0.00 in0.0 mm 0.09 in2.3 mm
07:30 PM 47.1°F8.4°C 39.6°F4.2°C 75% 0.5 mph W0.8 kmh W 5.0 mph8.0 kmh 29.33 in993.2 mb 0.00 in0.0 mm 0.00 in0.0 mm 0.09 in2.3 mm
07:45 PM 47.5°F8.6°C 40.3°F4.6°C 76% 0.2 mph W0.3 kmh W 3.9 mph6.3 kmh 29.33 in993.2 mb 0.00 in0.0 mm 0.00 in0.0 mm 0.09 in2.3 mm
08:00 PM 47.7°F8.7°C 40.8°F4.9°C 77% Calm Calm -- 29.33 in993.2 mb 0.00 in0.0 mm 0.00 in0.0 mm 0.09 in2.3 mm
08:15 PM 47.5°F8.6°C 40.6°F4.8°C 77% 0.1 mph E0.2 kmh E 3.2 mph5.1 kmh 29.33 in993.2 mb 0.00 in0.0 mm 0.00 in0.0 mm 0.09 in2.3 mm
08:30 PM 46.0°F7.8°C 38.6°F3.7°C 75% 0.2 mph ESE0.3 kmh ESE 3.2 mph5.1 kmh 29.33 in993.2 mb 0.00 in0.0 mm 0.00 in0.0 mm 0.09 in2.3 mm
08:45 PM 45.1°F7.3°C 38.0°F3.3°C 76% Calm Calm -- 29.30 in992.2 mb 0.00 in0.0 mm 0.00 in0.0 mm 0.09 in2.3 mm
09:00 PM 44.6°F7.0°C 37.5°F3.1°C 76% Calm Calm -- 29.30 in992.2 mb 0.00 in0.0 mm 0.00 in0.0 mm 0.09 in2.3 mm
09:15 PM 43.7°F6.5°C 36.3°F2.4°C 75% Calm Calm -- 29.33 in993.2 mb 0.00 in0.0 mm 0.00 in0.0 mm 0.09 in2.3 mm
09:30 PM 42.8°F6.0°C 35.4°F1.9°C 75% Calm Calm 1.8 mph2.9 kmh 29.33 in993.2 mb 0.00 in0.0 mm 0.00 in0.0 mm 0.09 in2.3 mm
09:46 PM 41.9°F5.5°C 34.9°F1.6°C 76% 2.0 mph SE3.2 kmh SE 5.0 mph8.0 kmh 29.27 in991.2 mb 0.00 in0.0 mm 0.00 in0.0 mm 0.09 in2.3 mm
09:47 PM 41.9°F5.5°C 34.9°F1.6°C 76% 2.6 mph SE4.2 kmh SE 5.0 mph8.0 kmh 29.33 in993.2 mb 0.00 in0.0 mm 0.00 in0.0 mm 0.09 in2.3 mm
09:48 PM 41.9°F5.5°C 34.9°F1.6°C 76% 2.0 mph SE3.2 kmh SE 5.0 mph8.0 kmh 29.33 in993.2 mb 0.00 in0.0 mm 0.00 in0.0 mm 0.09 in2.3 mm
09:49 PM 41.9°F5.5°C 34.9°F1.6°C 76% 2.5 mph SE4.0 kmh SE 5.7 mph9.2 kmh 29.33 in993.2 mb 0.00 in0.0 mm 0.00 in0.0 mm 0.09 in2.3 mm
09:50 PM 41.7°F5.4°C 34.7°F1.5°C 76% 3.5 mph SE5.6 kmh SE 6.1 mph9.8 kmh 29.33 in993.2 mb 0.00 in0.0 mm 0.00 in0.0 mm 0.09 in2.3 mm
10:00 PM 41.5°F5.3°C 34.9°F1.6°C 77% 1.1 mph SE1.8 kmh SE 6.4 mph10.3 kmh 29.33 in993.2 mb 0.00 in0.0 mm 0.00 in0.0 mm 0.09 in2.3 mm
10:15 PM 41.4°F5.2°C 34.7°F1.5°C 77% Calm Calm -- 29.33 in993.2 mb 0.00 in0.0 mm 0.00 in0.0 mm 0.09 in2.3 mm
10:30 PM 40.6°F4.8°C 34.0°F1.1°C 77% 0.8 mph E1.3 kmh E 5.0 mph8.0 kmh 29.33 in993.2 mb 0.00 in0.0 mm 0.00 in0.0 mm 0.09 in2.3 mm
10:45 PM 40.1°F4.5°C 33.5°F0.8°C 77% 0.9 mph NNE1.4 kmh NNE 5.0 mph8.0 kmh 29.33 in993.2 mb 0.00 in0.0 mm 0.00 in0.0 mm 0.09 in2.3 mm
11:00 PM 40.5°F4.7°C 34.1°F1.2°C 78% 2.4 mph ESE3.9 kmh ESE 7.9 mph12.7 kmh 29.33 in993.2 mb 0.00 in0.0 mm 0.00 in0.0 mm 0.05 in1.3 mm
11:15 PM 41.0°F5.0°C 35.0°F1.7°C 79% 5.2 mph ESE8.4 kmh ESE 10.0 mph16.1 kmh 29.33 in993.2 mb 0.00 in0.0 mm 0.00 in0.0 mm 0.05 in1.3 mm
11:30 PM 41.2°F5.1°C 35.2°F1.8°C 79% 7.5 mph SE12.1 kmh SE 14.0 mph22.5 kmh 29.33 in993.2 mb 0.00 in0.0 mm 0.00 in0.0 mm 0.05 in1.3 mm
11:45 PM 40.8°F4.9°C 34.8°F1.6°C 79% 8.7 mph ESE14.0 kmh ESE 13.6 mph21.9 kmh 29.30 in992.2 mb 0.00 in0.0 mm 0.00 in0.0 mm 0.05 in1.3 mm